sensor_id;sensor_type;location;lat;lon;timestamp;pressure;altitude;pressure_sealevel;temperature;humidity
44148;BME280;29810;55.848;37.368;2022-12-16T00:00:29;98666.59;;;-2.71;87.32
44148;BME280;29810;55.848;37.368;2022-12-16T00:03:32;98623.97;;;-2.84;87.14
44148;BME280;29810;55.848;37.368;2022-12-16T00:06:33;98651.34;;;-2.61;87.25
44148;BME280;29810;55.848;37.368;2022-12-16T00:09:35;98645.41;;;-2.59;87.18
44148;BME280;29810;55.848;37.368;2022-12-16T00:12:36;98643.66;;;-2.66;86.87
44148;BME280;29810;55.848;37.368;2022-12-16T00:15:38;98647.97;;;-2.59;87.15
44148;BME280;29810;55.848;37.368;2022-12-16T00:18:40;98640.34;;;-2.53;87.11
44148;BME280;29810;55.848;37.368;2022-12-16T00:21:41;98634.44;;;-2.47;87.00
44148;BME280;29810;55.848;37.368;2022-12-16T00:24:43;98619.97;;;-2.50;86.85
44148;BME280;29810;55.848;37.368;2022-12-16T00:27:45;98626.78;;;-2.47;86.69
44148;BME280;29810;55.848;37.368;2022-12-16T00:30:47;98615.75;;;-2.40;87.08
44148;BME280;29810;55.848;37.368;2022-12-16T00:33:49;98620.91;;;-2.35;86.85
44148;BME280;29810;55.848;37.368;2022-12-16T00:36:50;98602.16;;;-2.39;86.72
44148;BME280;29810;55.848;37.368;2022-12-16T00:39:52;98614.13;;;-2.22;86.48
44148;BME280;29810;55.848;37.368;2022-12-16T00:42:53;98614.16;;;-2.19;86.35
44148;BME280;29810;55.848;37.368;2022-12-16T00:45:55;98622.66;;;-2.20;86.39
44148;BME280;29810;55.848;37.368;2022-12-16T00:48:56;98603.97;;;-2.13;86.48
44148;BME280;29810;55.848;37.368;2022-12-16T00:51:58;98626.94;;;-2.18;86.01
44148;BME280;29810;55.848;37.368;2022-12-16T00:55:00;98607.31;;;-2.25;86.44
44148;BME280;29810;55.848;37.368;2022-12-16T00:58:01;98609.91;;;-2.20;86.62
44148;BME280;29810;55.848;37.368;2022-12-16T01:01:03;98621.81;;;-2.18;86.39
44148;BME280;29810;55.848;37.368;2022-12-16T01:04:05;98634.59;;;-2.18;86.48
44148;BME280;29810;55.848;37.368;2022-12-16T01:07:07;98622.66;;;-2.23;86.30
44148;BME280;29810;55.848;37.368;2022-12-16T01:10:10;98601.31;;;-2.33;86.60
44148;BME280;29810;55.848;37.368;2022-12-16T01:13:11;98588.53;;;-2.38;86.47
44148;BME280;29810;55.848;37.368;2022-12-16T01:16:13;98627.81;;;-2.14;86.64
44148;BME280;29810;55.848;37.368;2022-12-16T01:19:15;98633.81;;;-2.09;86.61
44148;BME280;29810;55.848;37.368;2022-12-16T01:22:17;98632.13;;;-2.01;86.43
44148;BME280;29810;55.848;37.368;2022-12-16T01:25:18;98632.16;;;-1.96;86.34
44148;BME280;29810;55.848;37.368;2022-12-16T01:28:20;98639.00;;;-1.87;86.54
44148;BME280;29810;55.848;37.368;2022-12-16T01:31:22;98627.91;;;-1.92;86.17
44148;BME280;29810;55.848;37.368;2022-12-16T01:34:24;98638.13;;;-1.95;86.39
44148;BME280;29810;55.848;37.368;2022-12-16T01:37:25;98628.78;;;-1.90;86.44
44148;BME280;29810;55.848;37.368;2022-12-16T01:40:28;98622.78;;;-1.92;86.44
44148;BME280;29810;55.848;37.368;2022-12-16T01:43:33;98618.50;;;-1.95;86.42
44148;BME280;29810;55.848;37.368;2022-12-16T01:46:36;98625.38;;;-1.88;86.34
44148;BME280;29810;55.848;37.368;2022-12-16T01:49:49;98627.06;;;-1.90;86.55
44148;BME280;29810;55.848;37.368;2022-12-16T01:52:56;98633.88;;;-1.87;85.97
44148;BME280;29810;55.848;37.368;2022-12-16T01:55:59;98637.28;;;-1.88;86.47
44148;BME280;29810;55.848;37.368;2022-12-16T01:59:02;98632.19;;;-1.87;86.52
44148;BME280;29810;55.848;37.368;2022-12-16T02:02:03;98639.88;;;-1.84;86.63
44148;BME280;29810;55.848;37.368;2022-12-16T02:05:05;98636.47;;;-1.81;86.60
44148;BME280;29810;55.848;37.368;2022-12-16T02:08:22;98642.44;;;-1.79;86.70
44148;BME280;29810;55.848;37.368;2022-12-16T02:18:18;98643.31;;;-1.68;86.27
44148;BME280;29810;55.848;37.368;2022-12-16T02:35:18;98657.81;;;-1.71;87.24
44148;BME280;29810;55.848;37.368;2022-12-16T02:38:28;98656.09;;;-1.69;87.28
44148;BME280;29810;55.848;37.368;2022-12-16T02:41:41;98655.22;;;-1.76;87.20
44148;BME280;29810;55.848;37.368;2022-12-16T02:44:59;98654.38;;;-1.73;86.94
44148;BME280;29810;55.848;37.368;2022-12-16T02:48:02;98648.44;;;-1.68;86.97
44148;BME280;29810;55.848;37.368;2022-12-16T02:51:03;98655.28;;;-1.60;87.31
44148;BME280;29810;55.848;37.368;2022-12-16T02:54:06;98651.87;;;-1.53;87.24
44148;BME280;29810;55.848;37.368;2022-12-16T03:01:24;98653.59;;;-1.49;85.77
44148;BME280;29810;55.848;37.368;2022-12-16T03:04:30;98667.22;;;-1.53;87.04
44148;BME280;29810;55.848;37.368;2022-12-16T03:07:39;98663.00;;;-1.43;87.11
44148;BME280;29810;55.848;37.368;2022-12-16T03:10:47;98656.97;;;-1.62;86.51
44148;BME280;29810;55.848;37.368;2022-12-16T03:13:53;98668.03;;;-1.65;86.72
44148;BME280;29810;55.848;37.368;2022-12-16T03:16:55;98669.75;;;-1.62;87.48
44148;BME280;29810;55.848;37.368;2022-12-16T03:20:08;98651.00;;;-1.72;87.84
44148;BME280;29810;55.848;37.368;2022-12-16T03:23:16;98682.56;;;-1.53;87.28
44148;BME280;29810;55.848;37.368;2022-12-16T03:26:28;98676.59;;;-1.55;87.58
44148;BME280;29810;55.848;37.368;2022-12-16T03:29:44;98660.37;;;-1.65;87.47
44148;BME280;29810;55.848;37.368;2022-12-16T03:36:11;98686.81;;;-1.58;87.26
44148;BME280;29810;55.848;37.368;2022-12-16T03:39:17;98691.13;;;-1.54;87.38
44148;BME280;29810;55.848;37.368;2022-12-16T03:42:20;98681.75;;;-1.46;87.64
44148;BME280;29810;55.848;37.368;2022-12-16T03:45:25;98697.97;;;-1.39;87.40
44148;BME280;29810;55.848;37.368;2022-12-16T03:48:28;98691.09;;;-1.48;87.12
44148;BME280;29810;55.848;37.368;2022-12-16T03:51:31;98700.50;;;-1.52;87.18
44148;BME280;29810;55.848;37.368;2022-12-16T03:54:32;98703.94;;;-1.45;87.48
44148;BME280;29810;55.848;37.368;2022-12-16T03:57:35;98704.78;;;-1.40;87.49
44148;BME280;29810;55.848;37.368;2022-12-16T04:00:36;98709.91;;;-1.40;86.97
44148;BME280;29810;55.848;37.368;2022-12-16T04:03:38;98726.06;;;-1.52;86.84
44148;BME280;29810;55.848;37.368;2022-12-16T04:06:39;98736.22;;;-1.62;87.42
44148;BME280;29810;55.848;37.368;2022-12-16T04:09:41;98741.31;;;-1.69;87.93
44148;BME280;29810;55.848;37.368;2022-12-16T04:12:43;98752.25;;;-1.91;87.77
44148;BME280;29810;55.848;37.368;2022-12-16T04:16:04;98752.22;;;-1.99;88.73
44148;BME280;29810;55.848;37.368;2022-12-16T04:19:35;98773.53;;;-1.95;89.37
44148;BME280;29810;55.848;37.368;2022-12-16T04:22:56;98771.69;;;-2.15;89.24
44148;BME280;29810;55.848;37.368;2022-12-16T04:26:16;98785.28;;;-2.21;90.29
44148;BME280;29810;55.848;37.368;2022-12-16T04:29:18;98791.25;;;-2.17;90.66
44148;BME280;29810;55.848;37.368;2022-12-16T04:32:19;98797.19;;;-2.24;90.48
44148;BME280;29810;55.848;37.368;2022-12-16T04:35:22;98788.56;;;-2.36;90.85
44148;BME280;29810;55.848;37.368;2022-12-16T04:38:42;98802.22;;;-2.30;91.16
44148;BME280;29810;55.848;37.368;2022-12-16T04:42:02;98807.44;;;-2.18;91.25
44148;BME280;29810;55.848;37.368;2022-12-16T04:45:22;98810.00;;;-2.18;90.93
44148;BME280;29810;55.848;37.368;2022-12-16T04:48:44;98820.16;;;-2.27;90.17
44148;BME280;29810;55.848;37.368;2022-12-16T04:52:04;98817.56;;;-2.29;90.74
44148;BME280;29810;55.848;37.368;2022-12-16T04:55:24;98828.59;;;-2.35;91.03
44148;BME280;29810;55.848;37.368;2022-12-16T04:58:45;98834.50;;;-2.39;90.21
44148;BME280;29810;55.848;37.368;2022-12-16T05:02:05;98838.06;;;-2.21;91.25
44148;BME280;29810;55.848;37.368;2022-12-16T05:05:25;98844.94;;;-2.12;90.37
44148;BME280;29810;55.848;37.368;2022-12-16T05:08:45;98847.44;;;-2.23;90.58
44148;BME280;29810;55.848;37.368;2022-12-16T05:12:06;98859.38;;;-2.21;90.69
44148;BME280;29810;55.848;37.368;2022-12-16T05:15:26;98857.75;;;-2.09;90.84
44148;BME280;29810;55.848;37.368;2022-12-16T05:18:46;98872.31;;;-1.97;90.04
44148;BME280;29810;55.848;37.368;2022-12-16T05:22:06;98879.97;;;-1.97;89.51
44148;BME280;29810;55.848;37.368;2022-12-16T05:25:26;98885.91;;;-2.03;89.78
44148;BME280;29810;55.848;37.368;2022-12-16T05:28:46;98885.97;;;-1.97;90.03
44148;BME280;29810;55.848;37.368;2022-12-16T05:32:06;98884.19;;;-2.03;89.56
44148;BME280;29810;55.848;37.368;2022-12-16T05:35:27;98888.53;;;-1.95;88.90
44148;BME280;29810;55.848;37.368;2022-12-16T05:38:47;98903.81;;;-2.02;88.61
44148;BME280;29810;55.848;37.368;2022-12-16T05:42:07;98919.97;;;-2.04;88.83
44148;BME280;29810;55.848;37.368;2022-12-16T05:45:27;98926.69;;;-2.14;87.86
44148;BME280;29810;55.848;37.368;2022-12-16T05:48:47;98933.56;;;-2.05;88.29
44148;BME280;29810;55.848;37.368;2022-12-16T05:52:07;98931.06;;;-2.01;87.31
44148;BME280;29810;55.848;37.368;2022-12-16T05:55:28;98943.09;;;-1.87;87.62
44148;BME280;29810;55.848;37.368;2022-12-16T05:58:48;98953.28;;;-1.93;87.25
44148;BME280;29810;55.848;37.368;2022-12-16T06:02:08;98964.37;;;-1.90;86.89
44148;BME280;29810;55.848;37.368;2022-12-16T06:05:29;98972.06;;;-1.88;86.23
44148;BME280;29810;55.848;37.368;2022-12-16T06:08:49;98977.09;;;-1.97;85.43
44148;BME280;29810;55.848;37.368;2022-12-16T06:12:10;98992.31;;;-2.10;84.67
44148;BME280;29810;55.848;37.368;2022-12-16T06:15:30;98994.87;;;-2.08;84.45
44148;BME280;29810;55.848;37.368;2022-12-16T06:18:50;99002.34;;;-2.25;83.82
44148;BME280;29810;55.848;37.368;2022-12-16T06:22:10;99018.59;;;-2.20;83.12
44148;BME280;29810;55.848;37.368;2022-12-16T06:25:31;99036.34;;;-2.29;82.84
44148;BME280;29810;55.848;37.368;2022-12-16T06:28:51;99038.06;;;-2.28;82.51
44148;BME280;29810;55.848;37.368;2022-12-16T06:32:11;99061.97;;;-2.23;80.43
44148;BME280;29810;55.848;37.368;2022-12-16T06:35:31;99047.28;;;-2.41;80.75
44148;BME280;29810;55.848;37.368;2022-12-16T06:38:52;99077.69;;;-2.60;79.72
44148;BME280;29810;55.848;37.368;2022-12-16T06:42:12;99076.66;;;-2.71;79.93
44148;BME280;29810;55.848;37.368;2022-12-16T06:45:32;99086.22;;;-2.56;79.82
44148;BME280;29810;55.848;37.368;2022-12-16T06:48:52;99092.13;;;-2.59;80.06
44148;BME280;29810;55.848;37.368;2022-12-16T06:52:12;99106.00;;;-2.43;81.31
44148;BME280;29810;55.848;37.368;2022-12-16T06:55:32;99114.72;;;-2.27;82.56
44148;BME280;29810;55.848;37.368;2022-12-16T06:58:52;99114.84;;;-2.18;81.33
44148;BME280;29810;55.848;37.368;2022-12-16T07:02:13;99122.41;;;-2.22;79.09
44148;BME280;29810;55.848;37.368;2022-12-16T07:05:34;99147.00;;;-2.30;77.93
44148;BME280;29810;55.848;37.368;2022-12-16T07:08:54;99141.06;;;-2.31;77.42
44148;BME280;29810;55.848;37.368;2022-12-16T07:12:15;99151.53;;;-2.11;79.51
44148;BME280;29810;55.848;37.368;2022-12-16T07:15:35;99160.31;;;-1.92;78.03
44148;BME280;29810;55.848;37.368;2022-12-16T07:18:55;99167.25;;;-1.80;78.32
44148;BME280;29810;55.848;37.368;2022-12-16T07:22:15;99177.50;;;-1.80;77.65
44148;BME280;29810;55.848;37.368;2022-12-16T07:25:35;99195.06;;;-2.05;76.05
44148;BME280;29810;55.848;37.368;2022-12-16T07:28:55;99201.56;;;-2.27;77.50
44148;BME280;29810;55.848;37.368;2022-12-16T07:32:16;99203.09;;;-2.38;77.79
44148;BME280;29810;55.848;37.368;2022-12-16T07:35:36;99206.78;;;-2.19;76.81
44148;BME280;29810;55.848;37.368;2022-12-16T07:38:56;99214.38;;;-2.24;76.41
44148;BME280;29810;55.848;37.368;2022-12-16T07:42:16;99214.22;;;-2.33;77.47
44148;BME280;29810;55.848;37.368;2022-12-16T07:45:36;99231.97;;;-2.42;77.25
44148;BME280;29810;55.848;37.368;2022-12-16T07:48:57;99246.50;;;-2.38;77.81
44148;BME280;29810;55.848;37.368;2022-12-16T07:52:17;99246.63;;;-2.30;76.97
44148;BME280;29810;55.848;37.368;2022-12-16T07:55:37;99261.00;;;-2.36;77.22
44148;BME280;29810;55.848;37.368;2022-12-16T07:58:57;99256.22;;;-2.69;76.22
44148;BME280;29810;55.848;37.368;2022-12-16T08:02:17;99259.66;;;-2.66;77.37
44148;BME280;29810;55.848;37.368;2022-12-16T08:05:37;99264.22;;;-2.49;77.09
44148;BME280;29810;55.848;37.368;2022-12-16T08:08:57;99275.63;;;-2.28;76.52
44148;BME280;29810;55.848;37.368;2022-12-16T08:12:18;99285.88;;;-2.24;75.32
44148;BME280;29810;55.848;37.368;2022-12-16T08:15:38;99289.78;;;-2.46;72.91
44148;BME280;29810;55.848;37.368;2022-12-16T08:18:58;99311.06;;;-2.47;73.99
44148;BME280;29810;55.848;37.368;2022-12-16T08:22:18;99309.44;;;-2.42;73.69
44148;BME280;29810;55.848;37.368;2022-12-16T08:25:38;99308.41;;;-2.53;72.29
44148;BME280;29810;55.848;37.368;2022-12-16T08:28:59;99311.00;;;-2.50;72.12
44148;BME280;29810;55.848;37.368;2022-12-16T08:32:19;99311.16;;;-2.39;72.28
44148;BME280;29810;55.848;37.368;2022-12-16T08:35:39;99317.53;;;-2.66;72.31
44148;BME280;29810;55.848;37.368;2022-12-16T08:39:00;99329.81;;;-2.45;72.75
44148;BME280;29810;55.848;37.368;2022-12-16T08:42:19;99332.53;;;-2.34;69.73
44148;BME280;29810;55.848;37.368;2022-12-16T08:45:41;99305.84;;;-2.53;69.93
44148;BME280;29810;55.848;37.368;2022-12-16T08:49:01;99328.06;;;-2.47;68.92
44148;BME280;29810;55.848;37.368;2022-12-16T08:52:21;99337.19;;;-2.60;69.05
44148;BME280;29810;55.848;37.368;2022-12-16T08:55:41;99357.44;;;-2.70;69.45
44148;BME280;29810;55.848;37.368;2022-12-16T08:59:01;99348.34;;;-2.55;70.36
44148;BME280;29810;55.848;37.368;2022-12-16T09:02:21;99361.63;;;-2.27;69.39
44148;BME280;29810;55.848;37.368;2022-12-16T09:05:43;99374.06;;;-2.44;67.67
44148;BME280;29810;55.848;37.368;2022-12-16T09:09:03;99378.91;;;-2.60;68.25
44148;BME280;29810;55.848;37.368;2022-12-16T09:12:23;99384.72;;;-2.69;67.29
44148;BME280;29810;55.848;37.368;2022-12-16T09:15:43;99393.97;;;-2.74;67.54
44148;BME280;29810;55.848;37.368;2022-12-16T09:19:03;99398.28;;;-2.71;67.95
44148;BME280;29810;55.848;37.368;2022-12-16T09:22:24;99392.88;;;-2.85;67.78
44148;BME280;29810;55.848;37.368;2022-12-16T09:25:44;99417.75;;;-2.75;67.00
44148;BME280;29810;55.848;37.368;2022-12-16T09:29:04;99421.66;;;-2.92;66.95
44148;BME280;29810;55.848;37.368;2022-12-16T09:32:24;99414.97;;;-2.87;67.02
44148;BME280;29810;55.848;37.368;2022-12-16T09:35:44;99426.31;;;-2.73;67.14
44148;BME280;29810;55.848;37.368;2022-12-16T09:39:05;99429.75;;;-2.71;66.43
44148;BME280;29810;55.848;37.368;2022-12-16T09:50:53;99443.78;;;-2.50;66.85
44148;BME280;29810;55.848;37.368;2022-12-16T09:54:16;99445.31;;;-2.58;66.98
44148;BME280;29810;55.848;37.368;2022-12-16T09:57:38;99447.22;;;-2.48;66.99
44148;BME280;29810;55.848;37.368;2022-12-16T10:01:13;99461.09;;;-2.35;67.81
44148;BME280;29810;55.848;37.368;2022-12-16T10:04:33;99456.66;;;-2.44;67.03
44148;BME280;29810;55.848;37.368;2022-12-16T10:08:15;99456.00;;;-2.34;68.08
44148;BME280;29810;55.848;37.368;2022-12-16T10:12:09;99459.69;;;-2.19;67.75
44148;BME280;29810;55.848;37.368;2022-12-16T10:19:53;99479.38;;;-2.13;68.47
44148;BME280;29810;55.848;37.368;2022-12-16T10:23:20;99476.81;;;-2.13;67.70
44148;BME280;29810;55.848;37.368;2022-12-16T10:27:00;99482.25;;;-2.41;66.09
44148;BME280;29810;55.848;37.368;2022-12-16T10:30:23;99485.28;;;-2.16;67.57
44148;BME280;29810;55.848;37.368;2022-12-16T10:33:46;99511.56;;;-2.23;67.58
44148;BME280;29810;55.848;37.368;2022-12-16T10:37:21;99508.69;;;-2.39;66.80
44148;BME280;29810;55.848;37.368;2022-12-16T10:40:43;99520.66;;;-2.36;68.06
44148;BME280;29810;55.848;37.368;2022-12-16T10:44:10;99516.38;;;-2.37;67.48
44148;BME280;29810;55.848;37.368;2022-12-16T10:47:35;99528.34;;;-2.35;68.11
44148;BME280;29810;55.848;37.368;2022-12-16T10:50:57;99533.50;;;-2.31;68.43
44148;BME280;29810;55.848;37.368;2022-12-16T11:01:33;99562.28;;;-2.80;68.50
44148;BME280;29810;55.848;37.368;2022-12-16T11:04:53;99565.75;;;-2.78;69.01
44148;BME280;29810;55.848;37.368;2022-12-16T11:08:33;99568.69;;;-2.59;69.51
44148;BME280;29810;55.848;37.368;2022-12-16T11:12:32;99563.53;;;-2.62;70.16
44148;BME280;29810;55.848;37.368;2022-12-16T11:16:05;99572.34;;;-2.48;70.53
44148;BME280;29810;55.848;37.368;2022-12-16T11:19:27;99579.63;;;-2.25;70.69
44148;BME280;29810;55.848;37.368;2022-12-16T11:23:18;99584.84;;;-2.21;70.61
44148;BME280;29810;55.848;37.368;2022-12-16T11:26:51;99607.09;;;-2.15;69.57
44148;BME280;29810;55.848;37.368;2022-12-16T11:33:32;99613.88;;;-2.57;71.14
44148;BME280;29810;55.848;37.368;2022-12-16T11:36:53;99621.28;;;-2.68;71.50
44148;BME280;29810;55.848;37.368;2022-12-16T11:40:15;99621.75;;;-2.84;72.22
44148;BME280;29810;55.848;37.368;2022-12-16T11:43:39;99633.06;;;-2.73;73.52
44148;BME280;29810;55.848;37.368;2022-12-16T11:47:00;99638.34;;;-2.67;71.85
44148;BME280;29810;55.848;37.368;2022-12-16T11:50:22;99636.31;;;-2.80;71.45
44148;BME280;29810;55.848;37.368;2022-12-16T12:01:08;99661.72;;;-3.18;73.88
44148;BME280;29810;55.848;37.368;2022-12-16T12:04:29;99677.66;;;-2.93;73.39
44148;BME280;29810;55.848;37.368;2022-12-16T12:07:58;99692.50;;;-3.12;72.70
44148;BME280;29810;55.848;37.368;2022-12-16T12:11:25;99683.13;;;-3.13;72.69
44148;BME280;29810;55.848;37.368;2022-12-16T12:14:50;99691.28;;;-3.26;72.44
44148;BME280;29810;55.848;37.368;2022-12-16T12:18:26;99690.19;;;-3.03;72.94
44148;BME280;29810;55.848;37.368;2022-12-16T12:28:52;99701.34;;;-3.31;71.15
44148;BME280;29810;55.848;37.368;2022-12-16T12:36:02;99705.13;;;-3.17;73.37
44148;BME280;29810;55.848;37.368;2022-12-16T12:43:05;99700.84;;;-3.18;73.64
44148;BME280;29810;55.848;37.368;2022-12-16T12:46:36;99714.41;;;-2.87;72.72
44148;BME280;29810;55.848;37.368;2022-12-16T12:50:21;99707.41;;;-3.27;72.30
44148;BME280;29810;55.848;37.368;2022-12-16T12:57:08;99724.88;;;-3.41;71.13
44148;BME280;29810;55.848;37.368;2022-12-16T13:00:39;99718.44;;;-3.28;72.67
44148;BME280;29810;55.848;37.368;2022-12-16T13:04:00;99729.88;;;-3.46;71.63
44148;BME280;29810;55.848;37.368;2022-12-16T13:07:24;99738.50;;;-3.41;71.31
44148;BME280;29810;55.848;37.368;2022-12-16T13:10:44;99742.91;;;-3.66;71.94
44148;BME280;29810;55.848;37.368;2022-12-16T13:24:57;99764.47;;;-3.54;71.91
44148;BME280;29810;55.848;37.368;2022-12-16T13:28:35;99769.00;;;-3.44;72.57
44148;BME280;29810;55.848;37.368;2022-12-16T13:32:21;99764.25;;;-3.31;72.48
44148;BME280;29810;55.848;37.368;2022-12-16T13:35:57;99773.56;;;-3.32;71.57
44148;BME280;29810;55.848;37.368;2022-12-16T13:39:28;99784.06;;;-3.23;72.32
44148;BME280;29810;55.848;37.368;2022-12-16T13:42:52;99787.87;;;-3.37;71.25
44148;BME280;29810;55.848;37.368;2022-12-16T13:46:14;99796.03;;;-3.49;72.25
44148;BME280;29810;55.848;37.368;2022-12-16T13:53:02;99810.25;;;-3.28;71.22
44148;BME280;29810;55.848;37.368;2022-12-16T13:56:39;99819.06;;;-3.47;70.85
44148;BME280;29810;55.848;37.368;2022-12-16T14:00:02;99809.19;;;-3.66;71.48
44148;BME280;29810;55.848;37.368;2022-12-16T14:03:45;99825.47;;;-3.60;71.76
44148;BME280;29810;55.848;37.368;2022-12-16T14:07:06;99825.84;;;-3.48;72.50
44148;BME280;29810;55.848;37.368;2022-12-16T14:10:37;99828.66;;;-3.39;72.55
44148;BME280;29810;55.848;37.368;2022-12-16T14:14:09;99834.75;;;-3.34;71.85
44148;BME280;29810;55.848;37.368;2022-12-16T14:17:37;99839.22;;;-3.26;72.32
44148;BME280;29810;55.848;37.368;2022-12-16T14:21:02;99848.81;;;-3.18;72.78
44148;BME280;29810;55.848;37.368;2022-12-16T14:24:25;99830.91;;;-3.19;71.98
44148;BME280;29810;55.848;37.368;2022-12-16T14:27:47;99841.25;;;-3.14;72.12
44148;BME280;29810;55.848;37.368;2022-12-16T14:31:17;99860.88;;;-3.12;71.75
44148;BME280;29810;55.848;37.368;2022-12-16T14:34:39;99852.56;;;-3.05;71.84
44148;BME280;29810;55.848;37.368;2022-12-16T14:38:25;99863.50;;;-3.09;71.54
44148;BME280;29810;55.848;37.368;2022-12-16T14:41:49;99872.16;;;-3.04;71.12
44148;BME280;29810;55.848;37.368;2022-12-16T14:48:46;99871.72;;;-3.48;71.66
44148;BME280;29810;55.848;37.368;2022-12-16T14:55:36;99882.19;;;-3.68;71.79
44148;BME280;29810;55.848;37.368;2022-12-16T14:59:13;99883.97;;;-3.65;73.49
44148;BME280;29810;55.848;37.368;2022-12-16T15:02:37;99878.59;;;-3.45;72.57
44148;BME280;29810;55.848;37.368;2022-12-16T15:06:04;99884.59;;;-3.45;71.90
44148;BME280;29810;55.848;37.368;2022-12-16T15:09:32;99890.16;;;-3.57;71.56
44148;BME280;29810;55.848;37.368;2022-12-16T15:12:53;99891.84;;;-3.57;71.88
44148;BME280;29810;55.848;37.368;2022-12-16T15:16:19;99902.25;;;-3.51;72.24
44148;BME280;29810;55.848;37.368;2022-12-16T15:19:47;99905.19;;;-3.37;72.74
44148;BME280;29810;55.848;37.368;2022-12-16T15:23:29;99901.16;;;-3.30;72.19
44148;BME280;29810;55.848;37.368;2022-12-16T15:27:26;99904.50;;;-3.33;72.08
44148;BME280;29810;55.848;37.368;2022-12-16T15:30:55;99901.87;;;-3.35;73.04
44148;BME280;29810;55.848;37.368;2022-12-16T15:35:02;99904.25;;;-3.41;72.70
44148;BME280;29810;55.848;37.368;2022-12-16T15:37:56;99908.03;;;-3.28;73.29
44148;BME280;29810;55.848;37.368;2022-12-16T15:41:30;99907.94;;;-3.31;73.24
44148;BME280;29810;55.848;37.368;2022-12-16T15:44:51;99916.47;;;-3.30;72.66
44148;BME280;29810;55.848;37.368;2022-12-16T15:48:26;99923.25;;;-3.58;71.82
44148;BME280;29810;55.848;37.368;2022-12-16T15:51:48;99917.09;;;-3.65;72.66
44148;BME280;29810;55.848;37.368;2022-12-16T15:55:30;99921.47;;;-3.61;72.89
44148;BME280;29810;55.848;37.368;2022-12-16T15:58:50;99919.88;;;-3.57;72.39
44148;BME280;29810;55.848;37.368;2022-12-16T16:02:30;99916.87;;;-3.71;73.05
44148;BME280;29810;55.848;37.368;2022-12-16T16:05:51;99916.28;;;-3.64;73.31
44148;BME280;29810;55.848;37.368;2022-12-16T16:09:15;99917.56;;;-3.50;73.36
44148;BME280;29810;55.848;37.368;2022-12-16T16:16:13;99918.53;;;-3.46;72.50
44148;BME280;29810;55.848;37.368;2022-12-16T16:19:34;99830.06;;;-4.05;72.89
44148;BME280;29810;55.848;37.368;2022-12-16T16:22:55;99916.00;;;-3.46;73.12
44148;BME280;29810;55.848;37.368;2022-12-16T16:26:17;99911.78;;;-3.44;73.02
44148;BME280;29810;55.848;37.368;2022-12-16T16:29:41;99901.06;;;-3.34;73.20
44148;BME280;29810;55.848;37.368;2022-12-16T16:33:05;99896.19;;;-3.26;73.00
44148;BME280;29810;55.848;37.368;2022-12-16T16:36:26;99821.56;;;-3.76;72.73
44148;BME280;29810;55.848;37.368;2022-12-16T16:40:00;99900.31;;;-3.29;73.04
44148;BME280;29810;55.848;37.368;2022-12-16T16:43:20;99869.31;;;-3.72;72.50
44148;BME280;29810;55.848;37.368;2022-12-16T16:46:41;99907.34;;;-3.51;73.06
44148;BME280;29810;55.848;37.368;2022-12-16T16:50:05;99885.84;;;-3.59;73.21
44148;BME280;29810;55.848;37.368;2022-12-16T16:53:26;99905.06;;;-3.42;73.21
44148;BME280;29810;55.848;37.368;2022-12-16T16:56:46;99849.00;;;-3.69;72.95
44148;BME280;29810;55.848;37.368;2022-12-16T17:00:09;99922.47;;;-3.28;72.85
44148;BME280;29810;55.848;37.368;2022-12-16T17:03:29;99911.38;;;-3.30;72.84
44148;BME280;29810;55.848;37.368;2022-12-16T17:06:50;99906.66;;;-3.45;73.17
44148;BME280;29810;55.848;37.368;2022-12-16T17:10:10;99913.69;;;-3.38;73.33
44148;BME280;29810;55.848;37.368;2022-12-16T17:13:30;99911.38;;;-3.30;73.44
44148;BME280;29810;55.848;37.368;2022-12-16T17:16:50;99914.81;;;-3.28;73.17
44148;BME280;29810;55.848;37.368;2022-12-16T17:20:15;99913.91;;;-3.30;73.44
44148;BME280;29810;55.848;37.368;2022-12-16T17:23:36;99919.28;;;-3.21;73.39
44148;BME280;29810;55.848;37.368;2022-12-16T17:26:57;99908.22;;;-3.22;73.22
44148;BME280;29810;55.848;37.368;2022-12-16T17:30:20;99904.03;;;-3.20;73.32
44148;BME280;29810;55.848;37.368;2022-12-16T17:33:41;99912.03;;;-3.07;73.32
44148;BME280;29810;55.848;37.368;2022-12-16T17:37:01;99899.78;;;-3.19;73.11
44148;BME280;29810;55.848;37.368;2022-12-16T17:40:21;99907.63;;;-3.13;73.05
44148;BME280;29810;55.848;37.368;2022-12-16T17:43:42;99909.09;;;-3.21;73.12
44148;BME280;29810;55.848;37.368;2022-12-16T17:51:32;99919.91;;;-3.00;73.49
44148;BME280;29810;55.848;37.368;2022-12-16T18:03:28;99890.72;;;-3.38;73.16
44148;BME280;29810;55.848;37.368;2022-12-16T18:11:35;99924.00;;;-3.34;73.00
44148;BME280;29810;55.848;37.368;2022-12-16T18:15:12;99946.38;;;-3.25;73.33
44148;BME280;29810;55.848;37.368;2022-12-16T18:18:56;99946.47;;;-3.22;73.46
44148;BME280;29810;55.848;37.368;2022-12-16T18:22:31;99923.16;;;-3.34;73.62
44148;BME280;29810;55.848;37.368;2022-12-16T18:26:09;99954.09;;;-3.23;73.66
44148;BME280;29810;55.848;37.368;2022-12-16T18:29:47;99950.72;;;-3.22;73.74
44148;BME280;29810;55.848;37.368;2022-12-16T18:33:23;99959.22;;;-3.22;73.60
44148;BME280;29810;55.848;37.368;2022-12-16T18:36:43;99962.19;;;-3.37;73.90
44148;BME280;29810;55.848;37.368;2022-12-16T18:40:04;99944.69;;;-3.52;73.90
44148;BME280;29810;55.848;37.368;2022-12-16T18:43:25;99954.75;;;-3.56;74.17
44148;BME280;29810;55.848;37.368;2022-12-16T18:46:46;99958.03;;;-3.60;74.56
44148;BME280;29810;55.848;37.368;2022-12-16T18:50:06;99944.47;;;-3.59;74.81
44148;BME280;29810;55.848;37.368;2022-12-16T18:53:27;99948.75;;;-3.58;74.99
44148;BME280;29810;55.848;37.368;2022-12-16T18:56:47;99931.66;;;-3.61;75.16
44148;BME280;29810;55.848;37.368;2022-12-16T19:00:07;99936.59;;;-3.67;75.09
44148;BME280;29810;55.848;37.368;2022-12-16T19:03:28;99948.59;;;-3.63;75.27
44148;BME280;29810;55.848;37.368;2022-12-16T19:06:48;99934.03;;;-3.67;75.50
44148;BME280;29810;55.848;37.368;2022-12-16T19:10:08;99963.44;;;-3.51;75.45
44148;BME280;29810;55.848;37.368;2022-12-16T19:13:28;99970.31;;;-3.48;75.45
44148;BME280;29810;55.848;37.368;2022-12-16T19:16:49;99973.84;;;-3.45;75.59
44148;BME280;29810;55.848;37.368;2022-12-16T19:20:09;99935.75;;;-3.66;75.27